Time;durP1;ratioP1;P1;durP2;ratioP2;P2;SDS_P1;SDS_P2;PMS_P1;PMS_P2;Temp;Humidity;BMP_temperature;BMP_pressure;BME280_temperature;BME280_humidity;BME280_pressure;Samples;Min_cycle;Max_cycle;Signal;HPM_P1;HPM_P2
2021/10/09 00:01:32;;;;;;;8.40;2.83;;;16.60;66.80;;;;;;5016228;28;20033;-86
2021/10/09 00:04:01;;;;;;;5.70;2.90;;;16.60;65.80;;;;;;5015752;28;20098;-79
2021/10/09 00:06:28;;;;;;;7.00;3.03;;;16.60;66.00;;;;;;5015648;28;20022;-81
2021/10/09 00:08:55;;;;;;;7.47;3.10;;;16.60;67.00;;;;;;5014403;28;20356;-80
2021/10/09 00:11:32;;;;;;;7.80;2.95;;;16.60;66.40;;;;;;4997011;28;20057;-74
2021/10/09 00:13:58;;;;;;;6.00;2.90;;;16.60;67.40;;;;;;5016017;28;20037;-72
2021/10/09 00:16:24;;;;;;;5.18;2.90;;;16.60;67.10;;;;;;5015103;28;20046;-71
2021/10/09 00:18:49;;;;;;;5.68;2.45;;;16.60;67.20;;;;;;5015168;28;20108;-73
2021/10/09 00:21:15;;;;;;;7.53;2.78;;;16.60;67.40;;;;;;4996767;28;20495;-71
2021/10/09 00:23:41;;;;;;;7.03;3.20;;;16.50;68.80;;;;;;4996371;28;20054;-70
2021/10/09 00:26:07;;;;;;;5.57;2.88;;;16.50;67.60;;;;;;4997981;28;20018;-71
2021/10/09 00:28:33;;;;;;;4.72;2.38;;;16.50;67.70;;;;;;4999028;28;20109;-69
2021/10/09 00:31:00;;;;;;;5.20;2.33;;;16.50;68.10;;;;;;5012476;28;20058;-80
2021/10/09 00:33:27;;;;;;;5.32;2.58;;;16.50;66.40;;;;;;5018651;28;20067;-86
2021/10/09 00:35:53;;;;;;;7.32;2.63;;;16.50;67.20;;;;;;5018774;28;20041;-85
2021/10/09 00:38:20;;;;;;;6.00;2.47;;;16.50;68.20;;;;;;5015267;28;20033;-86
2021/10/09 00:40:46;;;;;;;6.43;2.60;;;16.50;66.50;;;;;;5007661;28;20049;-86
2021/10/09 00:43:12;;;;;;;6.25;2.55;;;16.40;67.80;;;;;;4996190;28;20463;-86
2021/10/09 00:45:38;;;;;;;4.97;2.78;;;16.40;67.90;;;;;;5010640;28;20022;-84
2021/10/09 00:48:04;;;;;;;6.75;3.20;;;16.40;71.30;;;;;;4996316;28;20026;-88
2021/10/09 00:50:30;;;;;;;7.50;2.78;;;16.40;68.20;;;;;;4998873;28;20044;-89
2021/10/09 00:52:58;;;;;;;6.18;2.70;;;16.40;71.60;;;;;;5015137;28;20041;-84
2021/10/09 00:55:26;;;;;;;5.40;2.60;;;16.40;72.80;;;;;;5015475;28;20094;-85
2021/10/09 00:57:53;;;;;;;5.38;2.53;;;16.40;70.50;;;;;;5019458;28;20471;-83
2021/10/09 01:00:19;;;;;;;5.57;2.53;;;16.40;73.00;;;;;;5018673;28;20036;-85
2021/10/09 01:02:47;;;;;;;5.40;2.67;;;16.40;67.20;;;;;;5014775;28;20091;-90
2021/10/09 01:05:15;;;;;;;6.38;2.70;;;16.40;67.50;;;;;;5010164;28;20030;-89
2021/10/09 01:07:41;;;;;;;5.28;2.38;;;16.40;67.00;;;;;;4995021;28;20052;-81
2021/10/09 01:10:07;;;;;;;8.45;2.72;;;16.40;66.40;;;;;;4995213;28;20026;-87
2021/10/09 01:12:33;;;;;;;6.35;2.90;;;16.30;66.90;;;;;;5009145;28;20038;-85
2021/10/09 01:14:58;;;;;;;7.38;2.45;;;16.30;66.40;;;;;;5014742;28;20028;-88
2021/10/09 01:17:25;;;;;;;6.97;2.83;;;16.30;66.90;;;;;;5007119;28;20511;-89
2021/10/09 01:19:52;;;;;;;6.63;2.72;;;16.30;67.10;;;;;;4995443;28;20037;-89
2021/10/09 01:22:22;;;;;;;10.13;2.83;;;16.30;67.20;;;;;;5020199;28;20132;-85
2021/10/09 01:24:49;;;;;;;7.20;2.60;;;16.30;66.70;;;;;;5014508;28;20022;-78
2021/10/09 01:27:18;;;;;;;6.57;2.53;;;16.30;66.90;;;;;;5013824;28;20482;-84
2021/10/09 01:29:44;;;;;;;5.85;2.78;;;16.30;66.80;;;;;;5028262;28;20037;-84
2021/10/09 01:32:09;;;;;;;4.97;2.40;;;16.30;66.70;;;;;;5008105;28;20061;-75
2021/10/09 01:34:35;;;;;;;6.78;2.50;;;16.30;66.70;;;;;;4995955;28;20026;-85
2021/10/09 01:37:04;;;;;;;8.65;2.97;;;16.30;66.90;;;;;;5019571;28;20025;-74
2021/10/09 01:39:31;;;;;;;4.82;2.35;;;16.30;67.40;;;;;;5014904;28;20475;-74
2021/10/09 01:42:02;;;;;;;4.82;2.33;;;16.20;66.90;;;;;;5011901;28;20026;-84
2021/10/09 01:44:41;;;;;;;5.85;2.50;;;16.20;67.30;;;;;;5013449;28;20054;-74
2021/10/09 01:47:09;;;;;;;7.30;2.33;;;16.20;67.10;;;;;;5011897;28;20548;-75
2021/10/09 01:49:35;;;;;;;6.30;2.67;;;16.30;67.80;;;;;;5013496;28;20517;-80
2021/10/09 01:52:00;;;;;;;6.72;2.33;;;16.30;67.10;;;;;;5014242;28;20026;-78
2021/10/09 01:54:30;;;;;;;6.07;2.83;;;16.30;67.00;;;;;;4995388;28;20042;-84
2021/10/09 01:56:58;;;;;;;5.63;2.50;;;16.30;67.20;;;;;;4994426;28;20061;-83
2021/10/09 01:59:24;;;;;;;7.45;2.40;;;16.30;67.20;;;;;;5009485;28;20094;-78
2021/10/09 02:01:51;;;;;;;5.75;2.47;;;16.30;67.00;;;;;;5002935;28;20065;-73
2021/10/09 02:04:18;;;;;;;5.45;2.22;;;16.30;67.50;;;;;;5001642;28;20023;-71
2021/10/09 02:06:47;;;;;;;6.55;2.42;;;16.30;67.60;;;;;;4993727;28;20030;-78
2021/10/09 02:09:16;;;;;;;5.03;2.25;;;16.30;67.10;;;;;;4994136;28;20054;-87
2021/10/09 02:11:47;;;;;;;5.40;2.00;;;16.30;67.50;;;;;;4994329;28;20041;-85
2021/10/09 02:25:48;;;;;;;4.05;2.20;;;16.10;67.80;;;;;;4987624;28;20030;-88
2021/10/09 02:28:22;;;;;;;5.13;2.33;;;16.10;68.10;;;;;;4978372;28;20035;-75
2021/10/09 02:30:51;;;;;;;5.00;2.45;;;16.10;68.10;;;;;;4977791;28;20530;-70
2021/10/09 02:33:19;;;;;;;6.15;2.15;;;16.10;67.20;;;;;;4977979;28;20042;-77
2021/10/09 02:35:45;;;;;;;7.57;2.28;;;16.20;67.30;;;;;;4995879;28;20069;-84
2021/10/09 02:38:13;;;;;;;6.50;2.08;;;16.20;67.40;;;;;;4996872;28;20030;-84
2021/10/09 02:40:44;;;;;;;7.55;2.25;;;16.20;67.40;;;;;;4995984;28;20026;-83
2021/10/09 02:43:11;;;;;;;5.45;2.28;;;16.10;67.40;;;;;;4980449;28;20495;-72
2021/10/09 02:45:57;;;;;;;5.15;1.90;;;16.10;67.40;;;;;;4978262;28;20113;-74
2021/10/09 02:48:28;;;;;;;5.10;2.42;;;16.10;67.40;;;;;;4978855;28;20030;-84
2021/10/09 02:50:56;;;;;;;4.90;2.55;;;16.10;68.20;;;;;;4978329;28;20034;-86
2021/10/09 02:53:22;;;;;;;4.32;2.03;;;16.10;67.40;;;;;;4978801;28;20050;-87
2021/10/09 02:55:48;;;;;;;3.00;1.88;;;16.00;67.60;;;;;;4991892;28;20074;-88
2021/10/09 02:58:14;;;;;;;5.97;2.10;;;16.00;68.00;;;;;;4998573;28;20034;-74
2021/10/09 03:00:42;;;;;;;7.47;2.08;;;16.00;67.80;;;;;;4993412;28;20041;-84
2021/10/09 03:03:07;;;;;;;6.28;2.00;;;16.00;68.30;;;;;;4997001;28;20030;-89
2021/10/09 03:05:33;;;;;;;4.47;1.92;;;16.00;67.90;;;;;;4996323;28;20449;-87
2021/10/09 03:08:02;;;;;;;6.35;1.80;;;16.00;67.90;;;;;;5000343;28;20034;-71
2021/10/09 03:10:29;;;;;;;2.90;1.70;;;16.00;68.00;;;;;;4998729;28;20025;-85
2021/10/09 03:12:56;;;;;;;5.43;1.95;;;16.00;67.80;;;;;;5006347;28;20046;-85
2021/10/09 03:15:22;;;;;;;6.00;1.90;;;16.00;68.10;;;;;;5004094;28;20064;-84
2021/10/09 03:17:49;;;;;;;7.28;1.83;;;16.00;67.90;;;;;;5010116;28;20125;-81
2021/10/09 03:20:15;;;;;;;3.65;2.05;;;16.00;68.30;;;;;;5017085;28;20041;-84
2021/10/09 03:22:41;;;;;;;3.30;1.63;;;15.90;67.90;;;;;;5017004;28;20387;-88
2021/10/09 03:25:08;;;;;;;6.07;2.22;;;15.90;67.90;;;;;;5015710;28;20057;-87
2021/10/09 03:27:54;;;;;;;6.35;2.00;;;15.90;68.00;;;;;;4997057;28;20121;-88
2021/10/09 03:30:40;;;;;;;4.35;1.70;;;15.90;68.50;;;;;;4997193;28;20422;-86
2021/10/09 03:33:08;;;;;;;6.22;2.05;;;15.90;68.70;;;;;;4996484;28;20053;-89
2021/10/09 03:35:36;;;;;;;6.03;2.00;;;15.90;68.60;;;;;;5001288;28;20022;-88
2021/10/09 03:38:05;;;;;;;5.03;1.90;;;15.90;68.30;;;;;;5015816;28;20030;-75
2021/10/09 03:40:32;;;;;;;5.85;2.20;;;15.90;68.40;;;;;;5016083;28;20033;-75
2021/10/09 03:43:18;;;;;;;6.32;2.00;;;15.80;68.30;;;;;;5015837;28;20022;-70
2021/10/09 03:46:01;;;;;;;5.47;1.77;;;15.80;68.60;;;;;;5012582;28;20106;-79
2021/10/09 03:48:40;;;;;;;10.25;2.15;;;15.80;68.70;;;;;;4997070;28;20058;-80
2021/10/09 03:54:05;;;;;;;4.80;1.90;;;15.80;68.50;;;;;;5009727;28;20121;-83
2021/10/09 03:56:51;;;;;;;6.75;1.70;;;15.80;68.70;;;;;;5016373;28;20424;-73
2021/10/09 03:59:18;;;;;;;9.45;1.90;;;15.80;68.90;;;;;;5015064;28;20076;-71
2021/10/09 04:01:56;;;;;;;6.28;2.00;;;15.80;68.70;;;;;;5015954;28;20033;-77
2021/10/09 04:04:23;;;;;;;5.32;1.70;;;15.80;68.70;;;;;;5014544;28;20038;-77
2021/10/09 04:06:49;;;;;;;6.57;2.22;;;15.80;69.00;;;;;;5008742;28;20085;-72
2021/10/09 04:09:16;;;;;;;7.00;1.92;;;15.80;68.60;;;;;;4995851;28;20551;-72
2021/10/09 04:11:43;;;;;;;5.05;1.65;;;15.70;68.50;;;;;;4994591;28;20057;-75
2021/10/09 04:14:10;;;;;;;5.30;1.90;;;15.70;68.70;;;;;;4999090;28;20026;-75
2021/10/09 04:16:37;;;;;;;5.25;1.90;;;15.70;68.80;;;;;;5000776;28;20038;-83
2021/10/09 04:19:04;;;;;;;4.97;2.05;;;15.60;70.90;;;;;;5022086;28;20053;-85
2021/10/09 04:21:32;;;;;;;4.53;1.50;;;15.60;73.70;;;;;;5017976;28;20120;-88
2021/10/09 04:23:58;;;;;;;8.73;1.85;;;15.60;69.00;;;;;;5013916;28;20557;-74
2021/10/09 04:26:30;;;;;;;8.85;1.80;;;15.60;73.30;;;;;;5015461;28;20109;-70
2021/10/09 04:29:02;;;;;;;3.30;1.70;;;15.60;69.20;;;;;;4998780;28;20487;-73
2021/10/09 04:31:28;;;;;;;4.97;1.75;;;15.60;69.10;;;;;;5008452;28;20030;-72
2021/10/09 04:34:04;;;;;;;3.13;1.42;;;15.60;69.10;;;;;;5023716;28;20092;-78
2021/10/09 04:36:29;;;;;;;6.82;1.85;;;15.60;69.10;;;;;;5022644;28;20021;-76
2021/10/09 04:38:57;;;;;;;5.90;1.70;;;15.50;69.00;;;;;;5021541;28;20441;-87
2021/10/09 04:41:23;;;;;;;3.78;1.48;;;15.50;68.90;;;;;;5015485;28;20426;-89
2021/10/09 04:43:50;;;;;;;4.05;1.65;;;15.50;69.20;;;;;;5016340;28;20025;-86
2021/10/09 04:46:17;;;;;;;3.85;1.60;;;15.50;69.00;;;;;;5015708;28;20029;-88
2021/10/09 04:48:42;;;;;;;4.70;1.52;;;15.50;69.90;;;;;;5017054;28;20029;-85
2021/10/09 04:51:09;;;;;;;5.88;1.83;;;15.40;69.30;;;;;;5021261;28;20029;-86
2021/10/09 04:53:35;;;;;;;7.32;1.65;;;15.40;70.10;;;;;;4999707;28;20275;-86
2021/10/09 04:56:01;;;;;;;8.77;2.78;;;15.40;69.40;;;;;;4996262;28;20022;-86
2021/10/09 04:58:27;;;;;;;5.20;2.00;;;15.40;69.10;;;;;;4994960;28;20030;-89
2021/10/09 05:00:54;;;;;;;6.47;1.90;;;15.40;70.20;;;;;;4995232;28;20110;-86
2021/10/09 05:03:19;;;;;;;6.22;1.83;;;15.40;69.40;;;;;;4995624;28;20034;-88
2021/10/09 05:05:46;;;;;;;4.70;1.63;;;15.40;69.00;;;;;;5010478;28;20053;-85
2021/10/09 05:08:13;;;;;;;7.90;1.77;;;15.40;68.80;;;;;;4996369;28;20034;-84
2021/10/09 05:10:41;;;;;;;7.53;1.95;;;15.40;68.30;;;;;;4993661;28;20175;-76
2021/10/09 05:13:07;;;;;;;3.53;1.70;;;15.40;68.60;;;;;;4994408;28;20121;-71
2021/10/09 05:15:43;;;;;;;6.10;1.90;;;15.30;68.30;;;;;;5003511;28;20105;-69
2021/10/09 05:18:09;;;;;;;5.03;1.80;;;15.40;69.10;;;;;;5013643;28;20058;-70
2021/10/09 05:20:37;;;;;;;4.45;1.80;;;15.40;68.40;;;;;;5013757;28;20053;-69
2021/10/09 05:23:04;;;;;;;7.13;2.00;;;15.30;68.90;;;;;;5013910;28;20018;-71
2021/10/09 05:25:49;;;;;;;2.83;1.23;;;15.30;68.30;;;;;;4999691;28;20072;-71
2021/10/09 05:28:18;;;;;;;4.63;1.88;;;15.40;69.20;;;;;;4994068;28;20448;-70
2021/10/09 05:30:48;;;;;;;6.10;2.28;;;15.30;68.50;;;;;;4994268;28;20468;-70
2021/10/09 05:35:57;;;;;;;7.55;2.20;;;15.40;68.40;;;;;;5006066;28;20046;-70
2021/10/09 05:38:24;;;;;;;5.53;1.80;;;15.40;68.20;;;;;;5013752;28;20093;-72
2021/10/09 05:40:49;;;;;;;8.45;2.10;;;15.40;68.30;;;;;;5013314;28;20026;-71
2021/10/09 05:43:16;;;;;;;9.70;2.10;;;15.40;68.40;;;;;;5011927;28;20129;-71
2021/10/09 05:45:43;;;;;;;8.65;2.78;;;15.40;68.40;;;;;;5012677;28;20044;-71
2021/10/09 05:48:09;;;;;;;6.38;2.60;;;15.50;68.80;;;;;;5012813;28;20529;-70
2021/10/09 07:00:57;;;;;;;8.57;2.63;;;17.60;63.80;;;;;;4999116;28;20063;-73
2021/10/09 07:03:22;;;;;;;9.88;3.17;;;17.70;67.50;;;;;;5014944;28;20038;-71
2021/10/09 07:05:49;;;;;;;9.90;3.05;;;17.80;68.40;;;;;;5015704;28;20030;-71
2021/10/09 07:08:16;;;;;;;11.18;2.85;;;18.00;69.00;;;;;;5015368;28;20034;-71
2021/10/09 07:10:47;;;;;;;9.63;2.50;;;18.10;67.30;;;;;;5003997;28;20399;-72
2021/10/09 07:13:13;;;;;;;6.22;2.33;;;18.20;68.00;;;;;;5015778;28;20038;-72
2021/10/09 07:15:41;;;;;;;12.50;4.63;;;18.20;67.80;;;;;;5015829;28;20172;-70
2021/10/09 07:18:10;;;;;;;8.10;2.78;;;18.30;67.20;;;;;;5015278;28;20050;-76
2021/10/09 07:20:38;;;;;;;10.57;4.00;;;18.30;60.50;;;;;;5014579;28;20028;-76
2021/10/09 07:23:07;;;;;;;6.88;2.40;;;18.40;64.20;;;;;;5016073;28;20029;-75
2021/10/09 07:25:34;;;;;;;12.50;3.58;;;18.40;60.50;;;;;;5014041;28;20084;-75
2021/10/09 07:28:00;;;;;;;7.30;2.80;;;18.40;64.90;;;;;;5015328;28;20034;-74
2021/10/09 07:30:28;;;;;;;7.95;2.50;;;18.50;62.50;;;;;;5009921;28;20018;-72
2021/10/09 07:32:53;;;;;;;5.95;1.95;;;18.60;62.30;;;;;;5013175;28;20042;-75
2021/10/09 07:35:19;;;;;;;10.80;4.32;;;18.60;62.20;;;;;;5015065;28;20388;-68
2021/10/09 07:37:45;;;;;;;7.28;2.60;;;18.60;62.70;;;;;;5030392;28;20490;-69
2021/10/09 07:40:12;;;;;;;17.42;7.72;;;18.70;62.20;;;;;;5015092;28;20452;-69
2021/10/09 07:42:38;;;;;;;11.80;5.00;;;18.70;62.50;;;;;;4995577;28;20053;-71
2021/10/09 07:45:05;;;;;;;9.20;2.42;;;18.70;62.00;;;;;;4995445;28;20023;-70
2021/10/09 07:47:30;;;;;;;9.10;3.00;;;18.70;61.60;;;;;;5008800;28;20030;-73
2021/10/09 07:49:56;;;;;;;10.02;2.60;;;18.70;60.50;;;;;;5013555;28;20025;-73
2021/10/09 07:52:22;;;;;;;8.98;3.22;;;18.70;61.20;;;;;;5008889;28;20040;-73
2021/10/09 07:54:48;;;;;;;11.25;2.50;;;18.60;60.10;;;;;;5013343;28;20365;-71
2021/10/09 07:57:14;;;;;;;7.57;2.80;;;18.60;60.00;;;;;;5014378;28;20057;-69
2021/10/09 07:59:39;;;;;;;7.32;2.17;;;18.60;60.20;;;;;;5009053;28;20021;-70
2021/10/09 08:02:05;;;;;;;10.32;2.42;;;18.60;59.70;;;;;;5014149;28;20045;-70
2021/10/09 08:04:32;;;;;;;5.32;2.25;;;18.60;59.90;;;;;;5013958;28;20375;-70
2021/10/09 08:06:58;;;;;;;7.05;2.10;;;18.60;61.00;;;;;;5013692;28;20056;-72
2021/10/09 08:09:31;;;;;;;6.28;1.98;;;18.60;61.00;;;;;;5019599;28;20104;-71
2021/10/09 08:11:57;;;;;;;7.33;2.13;;;18.60;59.30;;;;;;5013589;28;20038;-71
2021/10/09 08:14:23;;;;;;;7.60;2.28;;;18.60;59.70;;;;;;5017086;28;20030;-69
2021/10/09 08:16:48;;;;;;;5.43;2.17;;;18.60;60.20;;;;;;5017180;28;20111;-68
2021/10/09 08:19:14;;;;;;;7.07;2.10;;;18.70;60.50;;;;;;5019285;28;20069;-69
2021/10/09 08:21:42;;;;;;;4.28;1.98;;;18.70;60.30;;;;;;5013963;28;20026;-75
2021/10/09 08:40:05;;;;;;;;;;;19.00;58.20;;;;;;5014305;28;20041;-73
2021/10/09 08:42:32;;;;;;;5.88;2.08;;;19.00;58.50;;;;;;5013365;28;19905;-70
2021/10/09 08:44:58;;;;;;;4.07;1.65;;;19.10;58.70;;;;;;5012689;28;20053;-74
2021/10/09 08:47:23;;;;;;;4.22;1.70;;;19.10;58.40;;;;;;5013875;28;20198;-72
2021/10/09 08:49:49;;;;;;;7.38;2.45;;;19.20;57.80;;;;;;5014066;28;20018;-73
2021/10/09 08:52:22;;;;;;;8.38;3.63;;;19.20;57.60;;;;;;5013667;28;20026;-71
2021/10/09 08:54:48;;;;;;;10.88;3.40;;;19.30;58.10;;;;;;5000666;28;20457;-73
2021/10/09 08:57:19;;;;;;;6.30;2.03;;;19.30;58.10;;;;;;5027794;28;20387;-71
2021/10/09 09:00:07;;;;;;;5.35;2.15;;;19.40;57.70;;;;;;5013073;28;20069;-71
2021/10/09 09:02:37;;;;;;;3.80;1.63;;;19.50;57.70;;;;;;5013653;28;20022;-72
2021/10/09 09:35:51;;;;;;;4.07;1.83;;;20.50;54.80;;;;;;5003989;28;20034;-72
2021/10/09 09:41:15;;;;;;;5.30;1.75;;;20.60;54.10;;;;;;5001516;28;20037;-72
2021/10/09 09:43:42;;;;;;;6.88;2.13;;;20.70;53.70;;;;;;5012658;28;20431;-71
2021/10/09 09:46:13;;;;;;;4.53;1.90;;;20.80;53.30;;;;;;5004924;28;20083;-71
2021/10/09 09:48:41;;;;;;;3.78;2.00;;;20.90;52.90;;;;;;5012128;28;20026;-72
2021/10/09 09:51:10;;;;;;;4.32;1.67;;;20.90;52.50;;;;;;5012216;28;20052;-72
2021/10/09 09:53:38;;;;;;;6.43;2.20;;;21.00;52.40;;;;;;5012661;28;20049;-73
2021/10/09 09:56:06;;;;;;;3.90;1.60;;;21.00;52.30;;;;;;5000584;28;20025;-71
2021/10/09 09:58:36;;;;;;;6.68;2.00;;;21.10;52.30;;;;;;4992788;28;20031;-72
2021/10/09 10:01:02;;;;;;;5.22;2.22;;;21.20;51.90;;;;;;4993029;28;20019;-72
2021/10/09 10:03:29;;;;;;;4.35;1.90;;;21.30;52.00;;;;;;4992875;28;20422;-72
2021/10/09 10:05:58;;;;;;;5.18;2.13;;;21.30;51.10;;;;;;5007608;28;20026;-71
2021/10/09 10:08:26;;;;;;;7.78;2.00;;;21.40;51.30;;;;;;5012727;28;20030;-71
2021/10/09 10:10:55;;;;;;;4.40;1.58;;;21.50;51.50;;;;;;5012698;28;20434;-73
2021/10/09 10:13:28;;;;;;;4.70;1.70;;;21.60;51.30;;;;;;5012537;28;20506;-72
2021/10/09 10:15:55;;;;;;;4.68;2.00;;;21.60;50.70;;;;;;5010220;28;20021;-72
2021/10/09 10:18:54;;;;;;;4.38;2.03;;;21.70;50.40;;;;;;5012220;28;20070;-71
2021/10/09 10:21:45;;;;;;;5.60;1.83;;;21.70;50.00;;;;;;5010263;28;20026;-73
2021/10/09 10:24:12;;;;;;;5.00;1.65;;;21.80;49.50;;;;;;5009188;28;20056;-73
2021/10/09 10:26:38;;;;;;;6.22;2.10;;;21.90;49.50;;;;;;5007353;28;20036;-72
2021/10/09 10:29:04;;;;;;;5.10;1.60;;;22.00;49.90;;;;;;5009447;28;20553;-71
2021/10/09 10:31:33;;;;;;;5.90;1.90;;;22.10;50.00;;;;;;5013605;28;20022;-72
2021/10/09 10:34:24;;;;;;;6.07;2.10;;;22.10;49.60;;;;;;5016543;28;20040;-71
2021/10/09 10:36:50;;;;;;;5.68;2.10;;;22.20;49.70;;;;;;5013622;28;20105;-71
2021/10/09 10:39:22;;;;;;;6.07;2.10;;;22.20;49.30;;;;;;5015747;28;20491;-72
2021/10/09 10:42:04;;;;;;;5.63;1.63;;;22.30;49.40;;;;;;5014630;28;20456;-70
2021/10/09 10:47:46;;;;;;;4.18;1.83;;;22.40;49.00;;;;;;5015510;28;20375;-72
2021/10/09 10:50:30;;;;;;;;;;;22.50;48.50;;;;;;5016502;28;20038;-72
2021/10/09 10:53:02;;;;;;;3.78;1.70;;;22.60;48.10;;;;;;5015855;28;19913;-75
2021/10/09 10:56:05;;;;;;;4.15;1.90;;;22.70;47.70;;;;;;5015041;28;20037;-72
2021/10/09 10:58:31;;;;;;;5.63;2.10;;;22.80;48.00;;;;;;4996399;28;20026;-75
2021/10/09 11:01:22;;;;;;;7.00;3.00;;;22.90;46.70;;;;;;4998284;28;20052;-71
2021/10/09 11:03:53;;;;;;;6.90;2.35;;;22.90;48.20;;;;;;5016116;28;20026;-76
2021/10/09 11:06:22;;;;;;;5.40;1.70;;;23.00;46.40;;;;;;5014419;28;20105;-70
2021/10/09 11:08:49;;;;;;;4.00;1.70;;;23.10;45.70;;;;;;4994794;28;20034;-72
2021/10/09 11:11:16;;;;;;;7.03;1.80;;;23.20;45.20;;;;;;4996108;28;20026;-71
2021/10/09 11:13:47;;;;;;;9.75;2.45;;;23.30;45.40;;;;;;5011277;28;20435;-74
2021/10/09 11:16:13;;;;;;;8.65;1.90;;;23.50;44.70;;;;;;5004991;28;20432;-68
2021/10/09 11:18:52;;;;;;;6.15;2.10;;;23.50;45.00;;;;;;5014324;28;20057;-74
2021/10/09 11:21:19;;;;;;;5.07;2.00;;;23.50;46.50;;;;;;5015639;28;20459;-70
2021/10/09 11:23:56;;;;;;;5.78;2.25;;;23.60;44.20;;;;;;5015454;28;20471;-74
2021/10/09 11:26:23;;;;;;;16.48;3.72;;;23.70;44.90;;;;;;5008130;28;20038;-70
2021/10/09 11:29:09;;;;;;;11.90;3.30;;;23.60;44.90;;;;;;5010580;28;20033;-72
2021/10/09 11:31:35;;;;;;;9.10;3.80;;;23.60;46.10;;;;;;4995536;28;20105;-72
2021/10/09 11:34:02;;;;;;;15.95;3.30;;;23.50;45.80;;;;;;4995674;28;20165;-69
2021/10/09 11:36:28;;;;;;;6.82;3.35;;;23.50;45.30;;;;;;4999099;28;20037;-71
2021/10/09 11:39:20;;;;;;;20.02;3.80;;;23.50;45.40;;;;;;5014901;28;20052;-72
2021/10/09 11:42:12;;;;;;;13.45;3.60;;;23.60;47.50;;;;;;5014963;28;20494;-71
2021/10/09 11:44:59;;;;;;;4.55;2.13;;;23.80;47.30;;;;;;5029731;28;20030;-77
2021/10/09 11:56:40;;;;;;;3.67;1.48;;;24.40;45.10;;;;;;5019952;28;20115;-76
2021/10/09 11:59:14;;;;;;;7.55;1.75;;;24.50;43.80;;;;;;5014292;28;20085;-75
2021/10/09 12:01:47;;;;;;;6.85;1.70;;;24.70;43.70;;;;;;5029406;28;20044;-76
2021/10/09 12:04:16;;;;;;;6.85;2.50;;;24.70;44.10;;;;;;5016243;28;20390;-75
2021/10/09 12:07:07;;;;;;;3.88;1.80;;;24.80;43.80;;;;;;5013553;28;20116;-75
2021/10/09 12:09:40;;;;;;;4.15;1.75;;;24.90;43.00;;;;;;5008081;28;20050;-71
2021/10/09 12:12:14;;;;;;;9.15;2.45;;;24.80;43.20;;;;;;5014646;28;20510;-68
2021/10/09 12:14:39;;;;;;;7.07;2.67;;;24.80;44.00;;;;;;5010925;28;20037;-74
2021/10/09 12:17:05;;;;;;;3.17;1.70;;;24.80;44.00;;;;;;5012260;28;20041;-73
2021/10/09 12:19:32;;;;;;;3.17;1.35;;;24.80;43.90;;;;;;5013668;28;20084;-74
2021/10/09 12:21:59;;;;;;;4.45;1.80;;;25.00;44.00;;;;;;5012446;28;20105;-73
2021/10/09 12:24:26;;;;;;;4.40;1.70;;;25.10;43.50;;;;;;5011596;28;20026;-74
2021/10/09 12:27:15;;;;;;;6.30;1.88;;;25.10;43.30;;;;;;5011845;28;20026;-72
2021/10/09 12:30:08;;;;;;;4.53;1.88;;;24.90;43.20;;;;;;5011362;28;20026;-79
2021/10/09 12:32:48;;;;;;;8.65;2.55;;;24.90;43.10;;;;;;5008109;28;20042;-74
2021/10/09 12:35:18;;;;;;;5.95;2.42;;;24.90;44.00;;;;;;5013533;28;20029;-72
2021/10/09 12:38:07;;;;;;;3.65;1.50;;;24.80;43.20;;;;;;5014201;28;20084;-70
2021/10/09 12:40:40;;;;;;;6.60;2.08;;;24.80;42.80;;;;;;4994657;28;20050;-77
2021/10/09 12:43:08;;;;;;;4.47;1.80;;;24.80;43.20;;;;;;4994420;28;20081;-69
2021/10/09 12:45:34;;;;;;;4.40;1.50;;;24.80;43.20;;;;;;4994879;28;20057;-70
2021/10/09 12:48:00;;;;;;;8.75;2.00;;;24.80;42.90;;;;;;5016302;28;20474;-69
2021/10/09 12:50:29;;;;;;;4.10;1.88;;;24.80;43.30;;;;;;5013545;28;20445;-73
2021/10/09 12:52:56;;;;;;;10.10;2.10;;;24.90;42.80;;;;;;5013188;28;20030;-78
2021/10/09 12:55:23;;;;;;;7.85;2.83;;;25.10;43.20;;;;;;5013854;28;20080;-77
2021/10/09 12:57:54;;;;;;;7.03;2.30;;;25.00;42.70;;;;;;5013350;28;20029;-77
2021/10/09 13:00:21;;;;;;;7.38;2.30;;;25.00;43.10;;;;;;4999600;28;20417;-79
2021/10/09 13:02:47;;;;;;;6.70;2.10;;;25.20;43.20;;;;;;4994107;28;20031;-74
2021/10/09 13:05:13;;;;;;;5.50;1.75;;;25.30;42.40;;;;;;4993826;28;20029;-72
2021/10/09 13:07:39;;;;;;;4.72;1.60;;;25.30;42.20;;;;;;4993929;28;20034;-72
2021/10/09 13:10:06;;;;;;;11.20;2.20;;;25.40;41.90;;;;;;5011800;28;20395;-71
2021/10/09 13:12:32;;;;;;;2.55;1.17;;;25.50;42.20;;;;;;5013860;28;20074;-73
2021/10/09 13:14:58;;;;;;;4.00;1.70;;;25.50;41.50;;;;;;5029754;28;20036;-75
2021/10/09 13:17:24;;;;;;;3.80;1.80;;;25.50;41.90;;;;;;5013397;28;20121;-76
2021/10/09 13:19:49;;;;;;;4.82;1.85;;;25.40;41.70;;;;;;5013001;28;20044;-70
2021/10/09 13:22:15;;;;;;;4.30;1.50;;;25.10;41.90;;;;;;5013803;28;20454;-74
2021/10/09 13:24:41;;;;;;;3.65;1.38;;;25.00;42.00;;;;;;5006835;28;20026;-75
2021/10/09 13:27:06;;;;;;;3.15;1.40;;;24.80;42.00;;;;;;5002507;28;20375;-72
2021/10/09 13:29:32;;;;;;;4.68;1.67;;;24.70;42.00;;;;;;5013152;28;20045;-72
2021/10/09 13:31:58;;;;;;;4.28;1.73;;;24.70;41.70;;;;;;5013127;28;20164;-76
2021/10/09 13:34:24;;;;;;;2.95;1.60;;;24.80;41.80;;;;;;5013386;28;20438;-70
2021/10/09 13:36:50;;;;;;;3.75;1.50;;;24.70;41.60;;;;;;5013587;28;20113;-73
2021/10/09 13:39:16;;;;;;;3.08;1.60;;;24.60;41.70;;;;;;5013392;28;20054;-71
2021/10/09 13:41:42;;;;;;;3.75;1.50;;;24.70;41.60;;;;;;4997024;28;20085;-71
2021/10/09 13:44:08;;;;;;;4.10;1.50;;;24.70;41.40;;;;;;4993696;28;20026;-70
2021/10/09 13:46:34;;;;;;;3.20;1.48;;;24.70;41.60;;;;;;4993448;28;20440;-70
2021/10/09 13:49:00;;;;;;;4.53;1.85;;;24.80;41.40;;;;;;5007131;28;20022;-70
2021/10/09 13:51:26;;;;;;;5.15;1.80;;;24.80;42.40;;;;;;5011185;28;20030;-71
2021/10/09 13:53:51;;;;;;;5.25;2.10;;;24.80;41.70;;;;;;5010939;28;20080;-72
2021/10/09 13:56:17;;;;;;;5.35;2.72;;;24.90;42.20;;;;;;5011749;28;20447;-72
2021/10/09 13:58:43;;;;;;;16.33;11.57;;;24.80;42.00;;;;;;5008282;28;20030;-78
2021/10/09 14:01:09;;;;;;;10.60;6.38;;;24.70;41.80;;;;;;4994042;28;20065;-79
2021/10/09 14:03:37;;;;;;;5.05;1.85;;;24.70;41.80;;;;;;4994319;28;20048;-75
2021/10/09 14:06:03;;;;;;;3.90;1.80;;;24.60;41.70;;;;;;4994987;28;20523;-72
2021/10/09 14:08:29;;;;;;;6.45;2.10;;;24.40;42.10;;;;;;5013383;28;20026;-72
2021/10/09 14:10:55;;;;;;;3.60;1.65;;;24.40;42.30;;;;;;5020904;28;20072;-71
2021/10/09 14:13:22;;;;;;;3.50;1.40;;;24.40;41.70;;;;;;5017240;28;20033;-70
2021/10/09 14:15:49;;;;;;;4.25;1.60;;;24.50;42.20;;;;;;5017249;28;20034;-75
2021/10/09 14:18:16;;;;;;;5.97;2.08;;;24.50;42.00;;;;;;5011704;28;20097;-74
2021/10/09 14:20:50;;;;;;;5.15;1.60;;;24.40;42.20;;;;;;5016113;28;20026;-76
2021/10/09 14:23:15;;;;;;;;;;;24.40;42.40;;;;;;5016317;28;20113;-75
2021/10/09 14:25:42;;;;;;;7.13;1.63;;;24.30;41.50;;;;;;5015600;28;19996;-73
2021/10/09 14:28:09;;;;;;;3.80;1.60;;;24.10;42.20;;;;;;5003039;28;20041;-72
2021/10/09 14:30:36;;;;;;;2.72;1.20;;;24.10;42.30;;;;;;4997215;28;20057;-73
2021/10/09 14:33:02;;;;;;;2.72;1.25;;;24.00;42.20;;;;;;4997048;28;20030;-72
2021/10/09 14:35:27;;;;;;;2.40;1.20;;;24.00;42.50;;;;;;4996785;28;20097;-74
2021/10/09 14:37:53;;;;;;;5.03;1.80;;;23.90;42.30;;;;;;5005480;28;20109;-76
2021/10/09 14:40:20;;;;;;;2.92;1.42;;;23.90;42.90;;;;;;5017927;28;20490;-77
2021/10/09 14:42:46;;;;;;;2.53;1.30;;;23.80;42.90;;;;;;5016616;28;20037;-73
2021/10/09 14:45:17;;;;;;;4.72;1.50;;;23.70;42.70;;;;;;5017535;28;20472;-77
2021/10/09 15:19:29;;;;;;;3.88;1.38;;;23.70;43.80;;;;;;5006813;28;20121;-75
2021/10/09 15:21:54;;;;;;;4.28;1.55;;;23.80;43.30;;;;;;4995143;28;20060;-73
2021/10/09 15:24:20;;;;;;;4.57;1.55;;;23.70;43.10;;;;;;4996142;28;20019;-75
2021/10/09 15:26:46;;;;;;;4.75;1.90;;;23.70;43.20;;;;;;4996090;28;20034;-75
2021/10/09 15:29:11;;;;;;;5.07;1.92;;;23.60;43.40;;;;;;5000726;28;20025;-73
2021/10/09 15:31:37;;;;;;;5.32;2.17;;;23.60;43.20;;;;;;5015709;28;20080;-73
2021/10/09 15:34:02;;;;;;;7.10;3.08;;;23.50;43.50;;;;;;5015148;28;20034;-73
2021/10/09 15:36:29;;;;;;;8.10;2.80;;;23.40;43.60;;;;;;5015098;28;20033;-75
2021/10/09 15:38:58;;;;;;;7.55;3.45;;;23.30;43.80;;;;;;5015158;28;20022;-75
2021/10/09 15:41:24;;;;;;;7.18;3.13;;;23.20;44.00;;;;;;5013302;28;20121;-74
2021/10/09 15:43:51;;;;;;;7.10;2.63;;;23.20;44.80;;;;;;5016603;28;20498;-75
2021/10/09 15:46:17;;;;;;;4.72;1.80;;;23.10;44.00;;;;;;5015990;28;20053;-75
2021/10/09 15:48:42;;;;;;;5.18;2.13;;;23.10;44.20;;;;;;5014792;28;20467;-74
2021/10/09 15:51:08;;;;;;;5.32;1.88;;;23.00;44.00;;;;;;5006902;28;20037;-72
2021/10/09 15:53:34;;;;;;;4.43;1.92;;;23.00;45.00;;;;;;4995767;28;20391;-73
2021/10/09 15:56:00;;;;;;;6.07;2.10;;;22.90;45.60;;;;;;5010187;28;20022;-74
2021/10/09 15:58:25;;;;;;;8.85;2.63;;;22.80;44.90;;;;;;4993882;28;20023;-73